Main page
METAR-TAF:

METAR-TAF

Airports :

La Chinita International Airport

Maracaibo, Venezuela

latitude: 10-34N, longitude: 071-44W, elevation: 66 m

Current weather observation

The report was made 27 minutes ago, at 11:02 UTC
Temperature
Pressure

METAR: SVMC 011102Z AUTO NIL

Time: 07:29 (11:29 UTC)

Forecast

The report was made 7 hours and 29 minutes ago, at 04:00 UTC
Forecast valid from 01 at 06 UTC to 02 at 06 UTC
Wind 7 kt from the West
Visibility: 8000 m
Broken clouds at a height of 1600 ft
rain
Temporary
from 01 at 06 UTC to 01 at 10 UTC
Wind 4 kt from the East/Southeast
Visibility 10 km or more
Broken clouds at a height of 1600 ft

TAF: SVMC 010400Z 0106/0206 27007KT 8000 RA BKN016 TX30/19Z TN24/08Z TEMPO 0106/0110 11004KT 9999 BKN016

Weather observations and forecasts of more than 4000 airports (METAR and TAF reports).

The available stations are represented by yellow and red dots on the map.

Hover mouse over dot to see the name of the station.

Then click to see weather observations and forecasts.

To change the map : click on the green buttons with a black cross to zoom in, on the green button with a dash to zoom out, or on the green arrows for adjacent maps.


METAR-TAF: